Ingalls, Michigan
Current Conditions -  °F | °C
As of 4:15 PM on Saturday 25 Oct 2014 (Local Time) from KMNM Reporting Station
Clear Clear  
Wind Chill: 63°   Ceiling: Unl
Heat Index: 63°   Visibility: 10mi
Dew Point: 25°   Wind: 16mph
Humidity: 24%   Direction: 310°NW
Pressure: 29.77"   Gusts: 26mph
Location:  45.38°N, 87.61°W
Report Text: KMNM 252115Z AUTO 31014G23KT 10SM CLR 17/M04 A2977 RMK AO1
Loading
Personal Weather Stations






























Interactive Weather Map
Tropical Storm Tracking
New forecast layout! Learn more

10-Day Weather Forecast

Advertisements
Track Severe Weather on mobile